This is the latest recevied weather packets stored in our database for station/object HB9EKO-12. If no packets are shown the sender has not sent any weather packets the latest 10 day(s).
| Time | Temp. | Humidity | Pressure | Rain* | Wind** | Luminosity | Snow |
|---|---|---|---|---|---|---|---|
| 1777013864 | 8.89° C | 60% | 1022 hPa | - | - | - | - |
| 1777012959 | 8.33° C | 62% | 1022 hPa | - | - | - | - |
| 1777012053 | 7.78° C | 62% | 1022 hPa | - | - | - | - |
| 1777011148 | 7.22° C | 64% | 1022 hPa | - | - | - | - |
| 1777010243 | 6.11° C | 69% | 1023 hPa | - | - | - | - |
| 1777009338 | 5.56° C | 71% | 1023 hPa | - | - | - | - |
| 1777008433 | 5.56° C | 69% | 1023 hPa | - | - | - | - |
| 1777007527 | 5.56° C | 70% | 1023 hPa | - | - | - | - |
| 1777006622 | 4.44° C | 72% | 1023 hPa | - | - | - | - |
| 1777005717 | 4.44° C | 72% | 1023 hPa | - | - | - | - |
| 1777004812 | 5° C | 69% | 1022 hPa | - | - | - | - |
| 1777003906 | 5° C | 69% | 1022 hPa | - | - | - | - |
| 1777003001 | 5° C | 67% | 1023 hPa | - | - | - | - |
| 1777002096 | 6.11° C | 66% | 1023 hPa | - | - | - | - |
| 1777001191 | 5.56° C | 66% | 1023 hPa | - | - | - | - |
| 1777000285 | 6.11° C | 64% | 1023 hPa | - | - | - | - |
| 1776999380 | 6.11° C | 63% | 1023 hPa | - | - | - | - |
| 1776998475 | 6.11° C | 62% | 1023 hPa | - | - | - | - |
| 1776997570 | 6.67° C | 62% | 1023 hPa | - | - | - | - |
| 1776996664 | 7.22° C | 59% | 1023 hPa | - | - | - | - |
| 1776994854 | 7.78° C | 55% | 1023 hPa | - | - | - | - |
| 1776993949 | 7.78° C | 55% | 1023 hPa | - | - | - | - |
| 1776993043 | 7.78° C | 55% | 1023 hPa | - | - | - | - |
| 1776992138 | 7.78° C | 53% | 1023 hPa | - | - | - | - |
| 1776991233 | 8.89° C | 48% | 1023 hPa | - | - | - | - |
* Rain since midnight (hover to see other rain measurements)
** Current wind speed in m/s (hover to see current wind gust speed)